Acton, Maine
Current Conditions -  °F | °C
As of 6:35 PM on Saturday 22 Nov 2014 (Local Time) from KSFM Reporting Station
Overcast Overcast  
Wind Chill: 32°   Ceiling: 7500
Heat Index: 36°   Visibility: 10mi
Dew Point:   Wind: 5mph
Humidity: 33%   Direction: 190°S
Pressure: 30.02"   Gusts: NA
Location:  43.53°N, 70.91°W
Report Text: KSFM 222335Z AUTO 19004KT 10SM SCT043 BKN075 OVC095 02/M13 A3002 RMK AO1
Loading
Personal Weather Stations






























Interactive Weather Map New forecast layout! Learn more

10-Day Weather Forecast

Advertisements
Track Severe Weather on mobile